sensor_id;sensor_type;location;lat;lon;timestamp;temperature;humidity
20568;DHT22;10442;49.932;11.592;2023-08-20T00:00:06;26.40;69.60
20568;DHT22;10442;49.932;11.592;2023-08-20T00:02:42;26.30;69.90
20568;DHT22;10442;49.932;11.592;2023-08-20T00:05:10;26.30;70.40
20568;DHT22;10442;49.932;11.592;2023-08-20T00:07:38;26.30;70.40
20568;DHT22;10442;49.932;11.592;2023-08-20T00:10:06;26.30;70.30
20568;DHT22;10442;49.932;11.592;2023-08-20T00:12:34;26.30;70.50
20568;DHT22;10442;49.932;11.592;2023-08-20T00:15:03;26.30;70.50
20568;DHT22;10442;49.932;11.592;2023-08-20T00:17:35;26.20;70.40
20568;DHT22;10442;49.932;11.592;2023-08-20T00:20:05;26.20;70.50
20568;DHT22;10442;49.932;11.592;2023-08-20T00:22:40;26.20;70.60
20568;DHT22;10442;49.932;11.592;2023-08-20T00:25:09;26.20;70.60
20568;DHT22;10442;49.932;11.592;2023-08-20T00:27:38;26.20;70.80
20568;DHT22;10442;49.932;11.592;2023-08-20T00:30:07;26.20;71.00
20568;DHT22;10442;49.932;11.592;2023-08-20T00:32:35;26.10;70.80
20568;DHT22;10442;49.932;11.592;2023-08-20T00:35:03;26.20;70.80
20568;DHT22;10442;49.932;11.592;2023-08-20T00:37:31;26.10;70.70
20568;DHT22;10442;49.932;11.592;2023-08-20T00:39:59;26.00;70.50
20568;DHT22;10442;49.932;11.592;2023-08-20T00:42:26;26.10;70.70
20568;DHT22;10442;49.932;11.592;2023-08-20T00:44:54;26.00;70.60
20568;DHT22;10442;49.932;11.592;2023-08-20T00:47:22;26.00;70.60
20568;DHT22;10442;49.932;11.592;2023-08-20T00:49:49;26.00;71.60
20568;DHT22;10442;49.932;11.592;2023-08-20T00:52:17;26.10;71.80
20568;DHT22;10442;49.932;11.592;2023-08-20T00:54:45;26.00;71.10
20568;DHT22;10442;49.932;11.592;2023-08-20T00:57:15;26.00;71.20
20568;DHT22;10442;49.932;11.592;2023-08-20T00:59:47;26.00;71.50
20568;DHT22;10442;49.932;11.592;2023-08-20T01:02:19;26.00;71.60
20568;DHT22;10442;49.932;11.592;2023-08-20T01:04:48;26.00;71.70
20568;DHT22;10442;49.932;11.592;2023-08-20T01:07:24;25.90;71.70
20568;DHT22;10442;49.932;11.592;2023-08-20T01:10:18;25.90;72.00
20568;DHT22;10442;49.932;11.592;2023-08-20T01:12:48;25.90;72.10
20568;DHT22;10442;49.932;11.592;2023-08-20T01:15:16;25.90;72.00
20568;DHT22;10442;49.932;11.592;2023-08-20T01:17:44;25.90;72.20
20568;DHT22;10442;49.932;11.592;2023-08-20T01:20:13;25.90;72.30
20568;DHT22;10442;49.932;11.592;2023-08-20T01:22:51;25.90;72.50
20568;DHT22;10442;49.932;11.592;2023-08-20T01:28:28;25.90;72.60
20568;DHT22;10442;49.932;11.592;2023-08-20T01:31:00;25.90;72.10
20568;DHT22;10442;49.932;11.592;2023-08-20T01:33:31;25.80;72.40
20568;DHT22;10442;49.932;11.592;2023-08-20T01:35:59;25.80;72.20
20568;DHT22;10442;49.932;11.592;2023-08-20T01:38:26;25.80;72.30
20568;DHT22;10442;49.932;11.592;2023-08-20T01:40:54;25.70;72.70
20568;DHT22;10442;49.932;11.592;2023-08-20T01:43:23;25.90;73.30
20568;DHT22;10442;49.932;11.592;2023-08-20T01:45:50;25.80;73.20
20568;DHT22;10442;49.932;11.592;2023-08-20T01:48:18;25.80;73.20
20568;DHT22;10442;49.932;11.592;2023-08-20T01:50:45;25.70;73.20
20568;DHT22;10442;49.932;11.592;2023-08-20T01:53:13;25.70;73.20
20568;DHT22;10442;49.932;11.592;2023-08-20T01:55:42;25.70;73.30
20568;DHT22;10442;49.932;11.592;2023-08-20T01:58:09;25.70;73.30
20568;DHT22;10442;49.932;11.592;2023-08-20T02:00:38;25.70;73.20
20568;DHT22;10442;49.932;11.592;2023-08-20T02:03:06;25.70;73.30
20568;DHT22;10442;49.932;11.592;2023-08-20T02:05:34;25.70;73.50
20568;DHT22;10442;49.932;11.592;2023-08-20T02:08:01;25.70;73.90
20568;DHT22;10442;49.932;11.592;2023-08-20T02:10:32;25.70;73.70
20568;DHT22;10442;49.932;11.592;2023-08-20T02:12:59;25.70;73.80
20568;DHT22;10442;49.932;11.592;2023-08-20T02:15:27;25.70;73.90
20568;DHT22;10442;49.932;11.592;2023-08-20T02:17:56;25.70;73.90
20568;DHT22;10442;49.932;11.592;2023-08-20T02:20:24;25.70;73.90
20568;DHT22;10442;49.932;11.592;2023-08-20T02:22:51;25.60;73.80
20568;DHT22;10442;49.932;11.592;2023-08-20T02:25:19;25.60;73.90
20568;DHT22;10442;49.932;11.592;2023-08-20T02:27:46;25.60;74.30
20568;DHT22;10442;49.932;11.592;2023-08-20T02:30:13;25.60;74.50
20568;DHT22;10442;49.932;11.592;2023-08-20T02:32:41;25.60;74.40
20568;DHT22;10442;49.932;11.592;2023-08-20T02:35:09;25.60;74.30
20568;DHT22;10442;49.932;11.592;2023-08-20T02:37:36;25.60;74.50
20568;DHT22;10442;49.932;11.592;2023-08-20T02:40:05;25.50;74.20
20568;DHT22;10442;49.932;11.592;2023-08-20T02:42:33;25.50;74.30
20568;DHT22;10442;49.932;11.592;2023-08-20T02:45:01;25.60;74.40
20568;DHT22;10442;49.932;11.592;2023-08-20T02:47:28;25.50;74.40
20568;DHT22;10442;49.932;11.592;2023-08-20T02:49:56;25.40;74.30
20568;DHT22;10442;49.932;11.592;2023-08-20T02:52:23;25.50;74.30
20568;DHT22;10442;49.932;11.592;2023-08-20T02:54:51;25.40;74.30
20568;DHT22;10442;49.932;11.592;2023-08-20T02:57:19;25.40;74.30
20568;DHT22;10442;49.932;11.592;2023-08-20T02:59:46;25.40;74.30
20568;DHT22;10442;49.932;11.592;2023-08-20T03:02:14;25.30;74.10
20568;DHT22;10442;49.932;11.592;2023-08-20T03:04:41;25.20;74.20
20568;DHT22;10442;49.932;11.592;2023-08-20T03:07:09;25.20;74.40
20568;DHT22;10442;49.932;11.592;2023-08-20T03:09:36;25.20;74.60
20568;DHT22;10442;49.932;11.592;2023-08-20T03:12:04;25.20;74.70
20568;DHT22;10442;49.932;11.592;2023-08-20T03:14:32;25.10;74.70
20568;DHT22;10442;49.932;11.592;2023-08-20T03:16:59;25.00;74.60
20568;DHT22;10442;49.932;11.592;2023-08-20T03:19:32;25.00;75.00
20568;DHT22;10442;49.932;11.592;2023-08-20T03:22:00;25.00;75.20
20568;DHT22;10442;49.932;11.592;2023-08-20T03:24:27;24.90;75.10
20568;DHT22;10442;49.932;11.592;2023-08-20T03:26:55;24.90;75.10
20568;DHT22;10442;49.932;11.592;2023-08-20T03:29:23;24.80;74.90
20568;DHT22;10442;49.932;11.592;2023-08-20T03:31:51;24.80;74.90
20568;DHT22;10442;49.932;11.592;2023-08-20T03:34:20;24.80;75.10
20568;DHT22;10442;49.932;11.592;2023-08-20T03:36:47;24.80;75.10
20568;DHT22;10442;49.932;11.592;2023-08-20T03:39:15;24.70;75.10
20568;DHT22;10442;49.932;11.592;2023-08-20T03:41:42;24.70;75.10
20568;DHT22;10442;49.932;11.592;2023-08-20T03:44:10;24.60;75.00
20568;DHT22;10442;49.932;11.592;2023-08-20T03:46:37;24.60;75.00
20568;DHT22;10442;49.932;11.592;2023-08-20T03:49:04;24.60;75.10
20568;DHT22;10442;49.932;11.592;2023-08-20T03:51:32;24.60;75.10
20568;DHT22;10442;49.932;11.592;2023-08-20T03:53:59;24.60;75.20
20568;DHT22;10442;49.932;11.592;2023-08-20T03:56:27;24.50;75.10
20568;DHT22;10442;49.932;11.592;2023-08-20T03:58:55;24.50;75.10
20568;DHT22;10442;49.932;11.592;2023-08-20T04:01:22;24.60;75.30
20568;DHT22;10442;49.932;11.592;2023-08-20T04:03:50;24.50;75.20
20568;DHT22;10442;49.932;11.592;2023-08-20T04:06:18;24.50;75.20
20568;DHT22;10442;49.932;11.592;2023-08-20T04:08:45;24.40;76.00
20568;DHT22;10442;49.932;11.592;2023-08-20T04:11:13;24.40;75.30
20568;DHT22;10442;49.932;11.592;2023-08-20T04:13:40;24.50;75.40
20568;DHT22;10442;49.932;11.592;2023-08-20T04:16:10;24.30;75.40
20568;DHT22;10442;49.932;11.592;2023-08-20T04:18:38;24.30;75.40
20568;DHT22;10442;49.932;11.592;2023-08-20T04:21:06;24.30;75.50
20568;DHT22;10442;49.932;11.592;2023-08-20T04:23:34;24.30;75.40
20568;DHT22;10442;49.932;11.592;2023-08-20T04:26:02;24.30;75.40
20568;DHT22;10442;49.932;11.592;2023-08-20T04:28:29;24.30;75.40
20568;DHT22;10442;49.932;11.592;2023-08-20T04:30:57;24.30;75.40
20568;DHT22;10442;49.932;11.592;2023-08-20T04:33:30;24.30;75.20
20568;DHT22;10442;49.932;11.592;2023-08-20T04:35:58;24.20;75.20
20568;DHT22;10442;49.932;11.592;2023-08-20T04:38:25;24.20;75.40
20568;DHT22;10442;49.932;11.592;2023-08-20T04:40:53;24.20;75.70
20568;DHT22;10442;49.932;11.592;2023-08-20T04:43:21;24.30;76.00
20568;DHT22;10442;49.932;11.592;2023-08-20T04:45:49;24.40;76.10
20568;DHT22;10442;49.932;11.592;2023-08-20T04:48:17;24.40;77.00
20568;DHT22;10442;49.932;11.592;2023-08-20T04:50:45;24.50;76.50
20568;DHT22;10442;49.932;11.592;2023-08-20T04:53:13;24.50;76.50
20568;DHT22;10442;49.932;11.592;2023-08-20T04:55:42;24.60;76.40
20568;DHT22;10442;49.932;11.592;2023-08-20T04:58:10;24.70;76.20
20568;DHT22;10442;49.932;11.592;2023-08-20T05:00:37;24.80;76.00
20568;DHT22;10442;49.932;11.592;2023-08-20T05:03:12;24.90;75.90
20568;DHT22;10442;49.932;11.592;2023-08-20T05:05:39;25.10;75.70
20568;DHT22;10442;49.932;11.592;2023-08-20T05:08:07;25.20;75.70
20568;DHT22;10442;49.932;11.592;2023-08-20T05:10:36;25.40;75.90
20568;DHT22;10442;49.932;11.592;2023-08-20T05:13:04;25.60;75.60
20568;DHT22;10442;49.932;11.592;2023-08-20T05:15:32;25.80;75.10
20568;DHT22;10442;49.932;11.592;2023-08-20T05:17:59;26.10;74.60
20568;DHT22;10442;49.932;11.592;2023-08-20T05:20:27;26.30;74.50
20568;DHT22;10442;49.932;11.592;2023-08-20T05:22:54;26.60;74.30
20568;DHT22;10442;49.932;11.592;2023-08-20T05:25:22;27.10;73.80
20568;DHT22;10442;49.932;11.592;2023-08-20T05:27:50;27.40;73.00
20568;DHT22;10442;49.932;11.592;2023-08-20T05:30:18;27.90;71.60
20568;DHT22;10442;49.932;11.592;2023-08-20T05:32:45;28.20;70.80
20568;DHT22;10442;49.932;11.592;2023-08-20T05:35:13;28.60;69.70
20568;DHT22;10442;49.932;11.592;2023-08-20T05:37:42;29.10;69.00
20568;DHT22;10442;49.932;11.592;2023-08-20T05:40:10;29.50;68.00
20568;DHT22;10442;49.932;11.592;2023-08-20T05:42:38;29.90;66.80
20568;DHT22;10442;49.932;11.592;2023-08-20T05:45:07;30.30;66.00
20568;DHT22;10442;49.932;11.592;2023-08-20T05:47:35;30.70;64.80
20568;DHT22;10442;49.932;11.592;2023-08-20T05:50:04;31.10;63.50
20568;DHT22;10442;49.932;11.592;2023-08-20T05:52:32;31.50;62.30
20568;DHT22;10442;49.932;11.592;2023-08-20T05:55:00;31.90;59.80
20568;DHT22;10442;49.932;11.592;2023-08-20T05:57:27;32.30;60.00
20568;DHT22;10442;49.932;11.592;2023-08-20T05:59:55;32.50;58.90
20568;DHT22;10442;49.932;11.592;2023-08-20T06:02:22;32.90;58.40
20568;DHT22;10442;49.932;11.592;2023-08-20T06:04:50;33.20;58.10
20568;DHT22;10442;49.932;11.592;2023-08-20T06:07:18;33.30;56.80
20568;DHT22;10442;49.932;11.592;2023-08-20T06:09:46;33.50;56.60
20568;DHT22;10442;49.932;11.592;2023-08-20T06:12:14;33.80;56.20
20568;DHT22;10442;49.932;11.592;2023-08-20T06:14:41;34.00;55.30
20568;DHT22;10442;49.932;11.592;2023-08-20T06:17:09;34.40;55.30
20568;DHT22;10442;49.932;11.592;2023-08-20T06:19:36;34.70;54.20
20568;DHT22;10442;49.932;11.592;2023-08-20T06:22:05;35.00;53.30
20568;DHT22;10442;49.932;11.592;2023-08-20T06:24:33;35.30;52.20
20568;DHT22;10442;49.932;11.592;2023-08-20T06:27:01;35.60;51.70
20568;DHT22;10442;49.932;11.592;2023-08-20T06:29:29;35.90;51.20
20568;DHT22;10442;49.932;11.592;2023-08-20T06:31:56;36.20;50.30
20568;DHT22;10442;49.932;11.592;2023-08-20T06:34:24;36.40;50.00
20568;DHT22;10442;49.932;11.592;2023-08-20T06:36:52;36.70;49.70
20568;DHT22;10442;49.932;11.592;2023-08-20T06:39:20;37.00;49.10
20568;DHT22;10442;49.932;11.592;2023-08-20T06:41:47;37.20;48.30
20568;DHT22;10442;49.932;11.592;2023-08-20T06:44:20;37.60;47.00
20568;DHT22;10442;49.932;11.592;2023-08-20T06:46:48;37.70;46.40
20568;DHT22;10442;49.932;11.592;2023-08-20T06:49:15;37.80;45.90
20568;DHT22;10442;49.932;11.592;2023-08-20T06:51:43;38.00;46.20
20568;DHT22;10442;49.932;11.592;2023-08-20T06:54:10;38.10;45.90
20568;DHT22;10442;49.932;11.592;2023-08-20T06:56:38;38.20;45.50
20568;DHT22;10442;49.932;11.592;2023-08-20T06:59:06;38.40;45.70
20568;DHT22;10442;49.932;11.592;2023-08-20T07:01:35;38.50;45.30
20568;DHT22;10442;49.932;11.592;2023-08-20T07:04:03;38.60;44.80
20568;DHT22;10442;49.932;11.592;2023-08-20T07:06:31;38.80;44.60
20568;DHT22;10442;49.932;11.592;2023-08-20T07:08:58;39.10;44.70
20568;DHT22;10442;49.932;11.592;2023-08-20T07:11:26;39.20;43.90
20568;DHT22;10442;49.932;11.592;2023-08-20T07:13:54;39.40;43.90
20568;DHT22;10442;49.932;11.592;2023-08-20T07:16:21;39.60;43.00
20568;DHT22;10442;49.932;11.592;2023-08-20T07:18:49;39.90;42.60
20568;DHT22;10442;49.932;11.592;2023-08-20T07:21:17;40.10;42.70
20568;DHT22;10442;49.932;11.592;2023-08-20T07:23:45;40.30;42.50
20568;DHT22;10442;49.932;11.592;2023-08-20T07:26:12;40.50;41.60
20568;DHT22;10442;49.932;11.592;2023-08-20T07:28:40;40.70;41.40
20568;DHT22;10442;49.932;11.592;2023-08-20T07:31:31;40.90;40.80
20568;DHT22;10442;49.932;11.592;2023-08-20T07:34:01;41.00;40.40
20568;DHT22;10442;49.932;11.592;2023-08-20T07:36:32;41.10;40.10
20568;DHT22;10442;49.932;11.592;2023-08-20T07:39:00;41.20;39.70
20568;DHT22;10442;49.932;11.592;2023-08-20T07:41:29;41.20;39.70
20568;DHT22;10442;49.932;11.592;2023-08-20T07:43:57;41.20;39.20
20568;DHT22;10442;49.932;11.592;2023-08-20T07:46:25;41.20;39.30
20568;DHT22;10442;49.932;11.592;2023-08-20T07:48:52;41.20;38.80
20568;DHT22;10442;49.932;11.592;2023-08-20T07:51:20;41.10;39.00
20568;DHT22;10442;49.932;11.592;2023-08-20T07:53:48;41.10;39.20
20568;DHT22;10442;49.932;11.592;2023-08-20T07:56:15;41.00;38.90
20568;DHT22;10442;49.932;11.592;2023-08-20T07:58:43;41.00;38.80
20568;DHT22;10442;49.932;11.592;2023-08-20T08:01:10;41.00;38.90
20568;DHT22;10442;49.932;11.592;2023-08-20T08:03:39;41.00;39.00
20568;DHT22;10442;49.932;11.592;2023-08-20T08:06:07;41.10;39.30
20568;DHT22;10442;49.932;11.592;2023-08-20T08:08:35;41.20;38.90
20568;DHT22;10442;49.932;11.592;2023-08-20T08:11:02;41.30;38.80
20568;DHT22;10442;49.932;11.592;2023-08-20T08:13:30;41.40;38.50
20568;DHT22;10442;49.932;11.592;2023-08-20T08:15:58;41.60;38.60
20568;DHT22;10442;49.932;11.592;2023-08-20T08:18:25;41.80;38.20
20568;DHT22;10442;49.932;11.592;2023-08-20T08:20:53;42.00;38.30
20568;DHT22;10442;49.932;11.592;2023-08-20T08:23:21;42.10;37.80
20568;DHT22;10442;49.932;11.592;2023-08-20T08:25:49;42.40;37.90
20568;DHT22;10442;49.932;11.592;2023-08-20T08:28:16;42.60;37.30
20568;DHT22;10442;49.932;11.592;2023-08-20T08:30:44;42.80;37.10
20568;DHT22;10442;49.932;11.592;2023-08-20T08:33:11;43.00;36.40
20568;DHT22;10442;49.932;11.592;2023-08-20T08:35:39;43.10;36.60
20568;DHT22;10442;49.932;11.592;2023-08-20T08:38:06;43.20;35.90
20568;DHT22;10442;49.932;11.592;2023-08-20T08:40:34;43.30;35.70
20568;DHT22;10442;49.932;11.592;2023-08-20T08:43:02;43.40;35.80
20568;DHT22;10442;49.932;11.592;2023-08-20T08:45:30;43.50;35.30
20568;DHT22;10442;49.932;11.592;2023-08-20T08:48:02;43.50;35.10
20568;DHT22;10442;49.932;11.592;2023-08-20T08:50:31;43.70;35.20
20568;DHT22;10442;49.932;11.592;2023-08-20T08:52:59;43.70;34.10
20568;DHT22;10442;49.932;11.592;2023-08-20T08:55:27;43.90;34.00
20568;DHT22;10442;49.932;11.592;2023-08-20T08:57:54;43.90;34.00
20568;DHT22;10442;49.932;11.592;2023-08-20T09:00:22;44.00;33.10
20568;DHT22;10442;49.932;11.592;2023-08-20T09:02:49;44.10;33.20
20568;DHT22;10442;49.932;11.592;2023-08-20T09:05:17;44.30;33.10
20568;DHT22;10442;49.932;11.592;2023-08-20T09:07:45;44.30;31.40
20568;DHT22;10442;49.932;11.592;2023-08-20T09:10:12;44.30;32.00
20568;DHT22;10442;49.932;11.592;2023-08-20T09:12:43;44.20;31.40
20568;DHT22;10442;49.932;11.592;2023-08-20T09:15:11;44.10;31.40
20568;DHT22;10442;49.932;11.592;2023-08-20T09:17:42;44.10;31.80
20568;DHT22;10442;49.932;11.592;2023-08-20T09:20:10;44.00;30.70
20568;DHT22;10442;49.932;11.592;2023-08-20T09:22:38;43.70;30.70
20568;DHT22;10442;49.932;11.592;2023-08-20T09:25:06;43.60;31.20
20568;DHT22;10442;49.932;11.592;2023-08-20T09:27:40;43.50;30.80
20568;DHT22;10442;49.932;11.592;2023-08-20T09:30:09;43.30;31.10
20568;DHT22;10442;49.932;11.592;2023-08-20T09:32:37;43.20;31.00
20568;DHT22;10442;49.932;11.592;2023-08-20T09:35:05;43.20;31.40
20568;DHT22;10442;49.932;11.592;2023-08-20T09:37:34;43.10;31.70
20568;DHT22;10442;49.932;11.592;2023-08-20T09:40:02;43.00;32.40
20568;DHT22;10442;49.932;11.592;2023-08-20T09:42:31;42.90;31.70
20568;DHT22;10442;49.932;11.592;2023-08-20T09:45:02;42.80;31.40
20568;DHT22;10442;49.932;11.592;2023-08-20T09:47:35;42.70;31.40
20568;DHT22;10442;49.932;11.592;2023-08-20T09:50:07;42.50;31.90
20568;DHT22;10442;49.932;11.592;2023-08-20T09:52:40;42.30;32.10
20568;DHT22;10442;49.932;11.592;2023-08-20T09:55:16;42.10;32.30
20568;DHT22;10442;49.932;11.592;2023-08-20T09:57:43;41.80;32.20
20568;DHT22;10442;49.932;11.592;2023-08-20T10:00:13;41.60;32.70
20568;DHT22;10442;49.932;11.592;2023-08-20T10:02:43;41.30;32.80
20568;DHT22;10442;49.932;11.592;2023-08-20T10:05:12;41.10;33.30
20568;DHT22;10442;49.932;11.592;2023-08-20T10:07:40;40.90;33.50
20568;DHT22;10442;49.932;11.592;2023-08-20T10:10:09;40.70;33.80
20568;DHT22;10442;49.932;11.592;2023-08-20T10:12:41;40.40;34.60
20568;DHT22;10442;49.932;11.592;2023-08-20T10:15:12;40.10;34.30
20568;DHT22;10442;49.932;11.592;2023-08-20T10:17:42;39.80;34.70
20568;DHT22;10442;49.932;11.592;2023-08-20T10:20:13;39.60;35.00
20568;DHT22;10442;49.932;11.592;2023-08-20T10:22:43;39.30;35.10
20568;DHT22;10442;49.932;11.592;2023-08-20T10:25:22;39.10;35.60
20568;DHT22;10442;49.932;11.592;2023-08-20T10:27:49;38.90;35.50
20568;DHT22;10442;49.932;11.592;2023-08-20T10:30:18;38.70;36.60
20568;DHT22;10442;49.932;11.592;2023-08-20T10:32:56;38.60;36.70
20568;DHT22;10442;49.932;11.592;2023-08-20T10:38:12;38.30;37.50
20568;DHT22;10442;49.932;11.592;2023-08-20T10:40:58;38.10;37.40
20568;DHT22;10442;49.932;11.592;2023-08-20T10:48:38;37.70;38.10
20568;DHT22;10442;49.932;11.592;2023-08-20T10:51:11;37.70;38.50
20568;DHT22;10442;49.932;11.592;2023-08-20T10:53:40;37.70;38.80
20568;DHT22;10442;49.932;11.592;2023-08-20T10:56:19;37.70;38.60
20568;DHT22;10442;49.932;11.592;2023-08-20T10:58:47;37.70;38.60
20568;DHT22;10442;49.932;11.592;2023-08-20T11:01:22;37.80;38.50
20568;DHT22;10442;49.932;11.592;2023-08-20T11:03:50;37.80;38.40
20568;DHT22;10442;49.932;11.592;2023-08-20T11:06:18;37.80;38.60
20568;DHT22;10442;49.932;11.592;2023-08-20T11:08:46;37.80;38.10
20568;DHT22;10442;49.932;11.592;2023-08-20T11:11:15;37.70;38.30
20568;DHT22;10442;49.932;11.592;2023-08-20T11:13:43;37.70;38.30
20568;DHT22;10442;49.932;11.592;2023-08-20T11:16:11;37.70;38.30
20568;DHT22;10442;49.932;11.592;2023-08-20T11:18:38;37.60;38.40
20568;DHT22;10442;49.932;11.592;2023-08-20T11:21:07;37.50;38.60
20568;DHT22;10442;49.932;11.592;2023-08-20T11:23:35;37.50;39.00
20568;DHT22;10442;49.932;11.592;2023-08-20T11:26:05;37.50;39.30
20568;DHT22;10442;49.932;11.592;2023-08-20T11:28:32;37.50;39.00
20568;DHT22;10442;49.932;11.592;2023-08-20T11:31:01;37.60;38.80
20568;DHT22;10442;49.932;11.592;2023-08-20T11:33:29;37.50;38.40
20568;DHT22;10442;49.932;11.592;2023-08-20T11:35:56;37.60;38.80
20568;DHT22;10442;49.932;11.592;2023-08-20T11:38:24;37.70;38.50
20568;DHT22;10442;49.932;11.592;2023-08-20T11:40:52;37.70;38.70
20568;DHT22;10442;49.932;11.592;2023-08-20T11:43:21;37.70;38.00
20568;DHT22;10442;49.932;11.592;2023-08-20T11:45:49;37.70;37.90
20568;DHT22;10442;49.932;11.592;2023-08-20T11:48:17;37.60;38.00
20568;DHT22;10442;49.932;11.592;2023-08-20T11:50:44;37.60;38.50
20568;DHT22;10442;49.932;11.592;2023-08-20T11:53:12;37.70;39.20
20568;DHT22;10442;49.932;11.592;2023-08-20T11:55:40;37.70;40.20
20568;DHT22;10442;49.932;11.592;2023-08-20T11:58:11;37.60;39.40
20568;DHT22;10442;49.932;11.592;2023-08-20T12:00:39;37.60;39.40
20568;DHT22;10442;49.932;11.592;2023-08-20T12:03:08;37.60;38.60
20568;DHT22;10442;49.932;11.592;2023-08-20T12:05:36;37.60;39.10
20568;DHT22;10442;49.932;11.592;2023-08-20T12:08:04;37.70;39.30
20568;DHT22;10442;49.932;11.592;2023-08-20T12:10:32;37.70;39.30
20568;DHT22;10442;49.932;11.592;2023-08-20T12:13:02;37.70;38.50
20568;DHT22;10442;49.932;11.592;2023-08-20T12:15:30;37.70;38.60
20568;DHT22;10442;49.932;11.592;2023-08-20T12:18:02;37.80;38.30
20568;DHT22;10442;49.932;11.592;2023-08-20T12:20:35;37.80;38.40
20568;DHT22;10442;49.932;11.592;2023-08-20T12:23:05;37.80;39.10
20568;DHT22;10442;49.932;11.592;2023-08-20T12:25:34;37.80;38.70
20568;DHT22;10442;49.932;11.592;2023-08-20T12:28:03;37.80;38.80
20568;DHT22;10442;49.932;11.592;2023-08-20T12:30:32;37.90;38.60
20568;DHT22;10442;49.932;11.592;2023-08-20T12:33:06;37.90;39.20
20568;DHT22;10442;49.932;11.592;2023-08-20T12:35:35;37.90;38.60
20568;DHT22;10442;49.932;11.592;2023-08-20T12:38:03;38.00;38.90
20568;DHT22;10442;49.932;11.592;2023-08-20T12:40:31;37.90;38.90
20568;DHT22;10442;49.932;11.592;2023-08-20T12:42:58;38.00;38.50
20568;DHT22;10442;49.932;11.592;2023-08-20T12:45:26;37.90;38.30
20568;DHT22;10442;49.932;11.592;2023-08-20T12:47:53;37.90;38.00
20568;DHT22;10442;49.932;11.592;2023-08-20T12:50:21;37.90;37.40
20568;DHT22;10442;49.932;11.592;2023-08-20T12:52:48;38.00;37.60
20568;DHT22;10442;49.932;11.592;2023-08-20T12:55:17;37.90;38.10
20568;DHT22;10442;49.932;11.592;2023-08-20T12:57:53;37.90;37.40
20568;DHT22;10442;49.932;11.592;2023-08-20T13:00:23;37.90;38.00
20568;DHT22;10442;49.932;11.592;2023-08-20T13:02:56;37.80;38.00
20568;DHT22;10442;49.932;11.592;2023-08-20T13:05:24;37.80;37.70
20568;DHT22;10442;49.932;11.592;2023-08-20T13:07:53;37.70;37.20
20568;DHT22;10442;49.932;11.592;2023-08-20T13:10:21;37.70;37.40
20568;DHT22;10442;49.932;11.592;2023-08-20T13:12:51;37.60;37.50
20568;DHT22;10442;49.932;11.592;2023-08-20T13:15:21;37.60;38.00
20568;DHT22;10442;49.932;11.592;2023-08-20T13:17:50;37.60;37.50
20568;DHT22;10442;49.932;11.592;2023-08-20T13:20:18;37.50;37.90
20568;DHT22;10442;49.932;11.592;2023-08-20T13:22:49;37.50;37.90
20568;DHT22;10442;49.932;11.592;2023-08-20T13:25:17;37.50;38.40
20568;DHT22;10442;49.932;11.592;2023-08-20T13:27:45;37.50;38.30
20568;DHT22;10442;49.932;11.592;2023-08-20T13:30:12;37.50;38.10
20568;DHT22;10442;49.932;11.592;2023-08-20T13:32:40;37.50;37.80
20568;DHT22;10442;49.932;11.592;2023-08-20T13:35:07;37.50;37.60
20568;DHT22;10442;49.932;11.592;2023-08-20T13:37:35;37.50;38.00
20568;DHT22;10442;49.932;11.592;2023-08-20T13:40:03;37.50;37.80
20568;DHT22;10442;49.932;11.592;2023-08-20T13:42:31;37.40;37.90
20568;DHT22;10442;49.932;11.592;2023-08-20T13:44:59;37.40;37.90
20568;DHT22;10442;49.932;11.592;2023-08-20T13:47:26;37.40;38.90
20568;DHT22;10442;49.932;11.592;2023-08-20T13:49:54;37.40;38.10
20568;DHT22;10442;49.932;11.592;2023-08-20T13:52:21;37.40;38.10
20568;DHT22;10442;49.932;11.592;2023-08-20T13:54:49;37.40;37.90
20568;DHT22;10442;49.932;11.592;2023-08-20T13:57:16;37.40;38.30
20568;DHT22;10442;49.932;11.592;2023-08-20T13:59:44;37.30;38.20
20568;DHT22;10442;49.932;11.592;2023-08-20T14:02:11;37.40;38.50
20568;DHT22;10442;49.932;11.592;2023-08-20T14:04:39;37.40;38.30
20568;DHT22;10442;49.932;11.592;2023-08-20T14:07:06;37.40;38.10
20568;DHT22;10442;49.932;11.592;2023-08-20T14:09:34;37.40;38.10
20568;DHT22;10442;49.932;11.592;2023-08-20T14:12:03;37.40;38.20
20568;DHT22;10442;49.932;11.592;2023-08-20T14:14:31;37.40;38.20
20568;DHT22;10442;49.932;11.592;2023-08-20T14:16:58;37.40;38.50
20568;DHT22;10442;49.932;11.592;2023-08-20T14:19:26;37.40;38.80
20568;DHT22;10442;49.932;11.592;2023-08-20T14:21:53;37.50;38.90
20568;DHT22;10442;49.932;11.592;2023-08-20T14:24:21;37.40;39.10
20568;DHT22;10442;49.932;11.592;2023-08-20T14:26:48;37.40;38.80
20568;DHT22;10442;49.932;11.592;2023-08-20T14:29:15;37.40;38.40
20568;DHT22;10442;49.932;11.592;2023-08-20T14:31:43;37.30;38.70
20568;DHT22;10442;49.932;11.592;2023-08-20T14:34:11;37.30;38.60
20568;DHT22;10442;49.932;11.592;2023-08-20T14:36:38;37.30;39.10
20568;DHT22;10442;49.932;11.592;2023-08-20T14:39:06;37.30;38.60
20568;DHT22;10442;49.932;11.592;2023-08-20T14:41:33;37.30;38.60
20568;DHT22;10442;49.932;11.592;2023-08-20T14:44:02;37.30;38.80
20568;DHT22;10442;49.932;11.592;2023-08-20T14:46:29;37.30;38.70
20568;DHT22;10442;49.932;11.592;2023-08-20T14:48:57;37.30;39.10
20568;DHT22;10442;49.932;11.592;2023-08-20T14:51:24;37.30;38.90
20568;DHT22;10442;49.932;11.592;2023-08-20T14:53:52;37.30;39.20
20568;DHT22;10442;49.932;11.592;2023-08-20T14:56:20;37.20;38.80
20568;DHT22;10442;49.932;11.592;2023-08-20T14:58:47;37.20;38.80
20568;DHT22;10442;49.932;11.592;2023-08-20T15:01:14;37.10;39.00
20568;DHT22;10442;49.932;11.592;2023-08-20T15:03:42;37.10;39.20
20568;DHT22;10442;49.932;11.592;2023-08-20T15:06:10;37.00;39.20
20568;DHT22;10442;49.932;11.592;2023-08-20T15:08:37;37.00;39.80
20568;DHT22;10442;49.932;11.592;2023-08-20T15:11:05;37.00;39.90
20568;DHT22;10442;49.932;11.592;2023-08-20T15:13:33;37.00;40.00
20568;DHT22;10442;49.932;11.592;2023-08-20T15:16:00;36.90;40.20
20568;DHT22;10442;49.932;11.592;2023-08-20T15:18:28;36.90;39.90
20568;DHT22;10442;49.932;11.592;2023-08-20T15:20:57;36.90;40.00
20568;DHT22;10442;49.932;11.592;2023-08-20T15:23:25;36.90;40.10
20568;DHT22;10442;49.932;11.592;2023-08-20T15:25:54;36.80;40.20
20568;DHT22;10442;49.932;11.592;2023-08-20T15:28:22;36.70;40.50
20568;DHT22;10442;49.932;11.592;2023-08-20T15:30:53;36.70;40.20
20568;DHT22;10442;49.932;11.592;2023-08-20T15:33:21;36.60;40.40